sensor_id;sensor_type;location;lat;lon;timestamp;P1;durP1;ratioP1;P2;durP2;ratioP2
41532;SDS011;27262;-35.248;149.138;2024-03-02T00:01:59;7.63;;;2.83;;
41532;SDS011;27262;-35.248;149.138;2024-03-02T00:04:30;8.55;;;2.50;;
41532;SDS011;27262;-35.248;149.138;2024-03-02T00:07:00;7.22;;;2.10;;
41532;SDS011;27262;-35.248;149.138;2024-03-02T00:09:31;6.93;;;2.00;;
41532;SDS011;27262;-35.248;149.138;2024-03-02T00:12:02;2.97;;;1.50;;
41532;SDS011;27262;-35.248;149.138;2024-03-02T00:14:34;3.78;;;1.55;;
41532;SDS011;27262;-35.248;149.138;2024-03-02T00:17:05;6.40;;;1.42;;
41532;SDS011;27262;-35.248;149.138;2024-03-02T00:19:45;7.25;;;1.85;;
41532;SDS011;27262;-35.248;149.138;2024-03-02T00:22:15;8.80;;;1.60;;
41532;SDS011;27262;-35.248;149.138;2024-03-02T00:24:46;6.65;;;1.40;;
41532;SDS011;27262;-35.248;149.138;2024-03-02T00:27:21;6.20;;;1.80;;
41532;SDS011;27262;-35.248;149.138;2024-03-02T00:29:53;4.60;;;1.33;;
41532;SDS011;27262;-35.248;149.138;2024-03-02T00:32:25;5.28;;;1.95;;
41532;SDS011;27262;-35.248;149.138;2024-03-02T00:34:56;6.40;;;1.63;;
41532;SDS011;27262;-35.248;149.138;2024-03-02T00:37:27;11.90;;;1.70;;
41532;SDS011;27262;-35.248;149.138;2024-03-02T00:39:58;7.38;;;1.42;;
41532;SDS011;27262;-35.248;149.138;2024-03-02T00:42:29;8.00;;;1.77;;
41532;SDS011;27262;-35.248;149.138;2024-03-02T00:45:01;6.40;;;1.58;;
41532;SDS011;27262;-35.248;149.138;2024-03-02T00:47:40;4.72;;;1.50;;
41532;SDS011;27262;-35.248;149.138;2024-03-02T00:50:12;7.00;;;1.48;;
41532;SDS011;27262;-35.248;149.138;2024-03-02T00:52:56;8.20;;;1.80;;
41532;SDS011;27262;-35.248;149.138;2024-03-02T00:55:26;8.23;;;1.50;;
41532;SDS011;27262;-35.248;149.138;2024-03-02T00:57:56;4.93;;;1.60;;
41532;SDS011;27262;-35.248;149.138;2024-03-02T01:00:27;7.05;;;1.60;;
41532;SDS011;27262;-35.248;149.138;2024-03-02T01:02:57;9.27;;;1.88;;
41532;SDS011;27262;-35.248;149.138;2024-03-02T01:05:28;14.50;;;2.13;;
41532;SDS011;27262;-35.248;149.138;2024-03-02T01:07:58;4.63;;;1.58;;
41532;SDS011;27262;-35.248;149.138;2024-03-02T01:10:28;7.03;;;1.55;;
41532;SDS011;27262;-35.248;149.138;2024-03-02T01:12:59;4.90;;;1.80;;
41532;SDS011;27262;-35.248;149.138;2024-03-02T01:15:29;6.72;;;2.08;;
41532;SDS011;27262;-35.248;149.138;2024-03-02T01:17:59;9.63;;;1.45;;
41532;SDS011;27262;-35.248;149.138;2024-03-02T01:20:30;10.93;;;2.13;;
41532;SDS011;27262;-35.248;149.138;2024-03-02T01:23:00;5.60;;;1.90;;
41532;SDS011;27262;-35.248;149.138;2024-03-02T01:25:31;5.43;;;1.48;;
41532;SDS011;27262;-35.248;149.138;2024-03-02T01:28:01;7.88;;;1.83;;
41532;SDS011;27262;-35.248;149.138;2024-03-02T01:30:32;6.07;;;1.67;;
41532;SDS011;27262;-35.248;149.138;2024-03-02T01:33:03;4.80;;;1.80;;
41532;SDS011;27262;-35.248;149.138;2024-03-02T01:35:34;4.47;;;1.38;;
41532;SDS011;27262;-35.248;149.138;2024-03-02T01:38:05;9.00;;;2.00;;
41532;SDS011;27262;-35.248;149.138;2024-03-02T01:40:37;8.10;;;1.75;;
41532;SDS011;27262;-35.248;149.138;2024-03-02T01:43:08;6.35;;;1.40;;
41532;SDS011;27262;-35.248;149.138;2024-03-02T01:45:38;4.22;;;1.20;;
41532;SDS011;27262;-35.248;149.138;2024-03-02T01:48:09;4.22;;;1.50;;
41532;SDS011;27262;-35.248;149.138;2024-03-02T01:50:39;6.63;;;1.25;;
41532;SDS011;27262;-35.248;149.138;2024-03-02T01:53:09;4.93;;;1.65;;
41532;SDS011;27262;-35.248;149.138;2024-03-02T01:55:40;6.57;;;1.33;;
41532;SDS011;27262;-35.248;149.138;2024-03-02T01:58:10;8.48;;;1.63;;
41532;SDS011;27262;-35.248;149.138;2024-03-02T02:00:40;5.53;;;1.42;;
41532;SDS011;27262;-35.248;149.138;2024-03-02T02:03:11;8.45;;;1.48;;
41532;SDS011;27262;-35.248;149.138;2024-03-02T02:05:44;4.45;;;1.60;;
41532;SDS011;27262;-35.248;149.138;2024-03-02T02:08:16;4.05;;;1.55;;
41532;SDS011;27262;-35.248;149.138;2024-03-02T02:10:50;2.85;;;1.27;;
41532;SDS011;27262;-35.248;149.138;2024-03-02T02:13:20;3.88;;;1.35;;
41532;SDS011;27262;-35.248;149.138;2024-03-02T02:15:51;5.47;;;1.38;;
41532;SDS011;27262;-35.248;149.138;2024-03-02T02:18:22;5.88;;;1.23;;
41532;SDS011;27262;-35.248;149.138;2024-03-02T02:20:53;4.13;;;1.25;;
41532;SDS011;27262;-35.248;149.138;2024-03-02T02:23:23;3.15;;;1.38;;
41532;SDS011;27262;-35.248;149.138;2024-03-02T02:25:53;3.88;;;1.08;;
41532;SDS011;27262;-35.248;149.138;2024-03-02T02:28:24;2.97;;;1.00;;
41532;SDS011;27262;-35.248;149.138;2024-03-02T02:30:54;5.50;;;0.93;;
41532;SDS011;27262;-35.248;149.138;2024-03-02T02:33:25;6.40;;;0.70;;
41532;SDS011;27262;-35.248;149.138;2024-03-02T02:35:55;5.55;;;0.73;;
41532;SDS011;27262;-35.248;149.138;2024-03-02T02:38:26;7.93;;;1.10;;
41532;SDS011;27262;-35.248;149.138;2024-03-02T02:40:56;3.47;;;0.90;;
41532;SDS011;27262;-35.248;149.138;2024-03-02T02:43:27;4.70;;;1.02;;
41532;SDS011;27262;-35.248;149.138;2024-03-02T02:45:58;6.70;;;1.38;;
41532;SDS011;27262;-35.248;149.138;2024-03-02T02:48:28;6.57;;;1.00;;
41532;SDS011;27262;-35.248;149.138;2024-03-02T02:50:59;11.88;;;1.40;;
41532;SDS011;27262;-35.248;149.138;2024-03-02T02:53:29;13.10;;;2.30;;
41532;SDS011;27262;-35.248;149.138;2024-03-02T02:55:59;16.75;;;1.70;;
41532;SDS011;27262;-35.248;149.138;2024-03-02T02:58:30;9.55;;;1.00;;
41532;SDS011;27262;-35.248;149.138;2024-03-02T03:01:01;10.35;;;1.73;;
41532;SDS011;27262;-35.248;149.138;2024-03-02T03:03:32;12.82;;;1.33;;
41532;SDS011;27262;-35.248;149.138;2024-03-02T03:06:03;7.80;;;1.10;;
41532;SDS011;27262;-35.248;149.138;2024-03-02T03:08:34;9.82;;;1.55;;
41532;SDS011;27262;-35.248;149.138;2024-03-02T03:11:04;6.95;;;1.10;;
41532;SDS011;27262;-35.248;149.138;2024-03-02T03:13:35;10.75;;;1.45;;
41532;SDS011;27262;-35.248;149.138;2024-03-02T03:16:05;7.70;;;0.85;;
41532;SDS011;27262;-35.248;149.138;2024-03-02T03:18:35;4.97;;;0.80;;
41532;SDS011;27262;-35.248;149.138;2024-03-02T03:21:07;9.25;;;1.33;;
41532;SDS011;27262;-35.248;149.138;2024-03-02T03:23:37;4.07;;;1.00;;
41532;SDS011;27262;-35.248;149.138;2024-03-02T03:26:07;6.43;;;1.08;;
41532;SDS011;27262;-35.248;149.138;2024-03-02T03:28:38;4.88;;;0.95;;
41532;SDS011;27262;-35.248;149.138;2024-03-02T03:31:08;4.22;;;0.77;;
41532;SDS011;27262;-35.248;149.138;2024-03-02T03:33:39;6.15;;;1.30;;
41532;SDS011;27262;-35.248;149.138;2024-03-02T03:36:09;7.95;;;0.82;;
41532;SDS011;27262;-35.248;149.138;2024-03-02T03:38:40;8.52;;;0.80;;
41532;SDS011;27262;-35.248;149.138;2024-03-02T03:41:10;5.97;;;1.58;;
41532;SDS011;27262;-35.248;149.138;2024-03-02T03:43:40;11.38;;;1.42;;
41532;SDS011;27262;-35.248;149.138;2024-03-02T03:46:11;3.38;;;0.70;;
41532;SDS011;27262;-35.248;149.138;2024-03-02T03:48:41;4.75;;;0.65;;
41532;SDS011;27262;-35.248;149.138;2024-03-02T03:51:11;5.45;;;0.82;;
41532;SDS011;27262;-35.248;149.138;2024-03-02T03:53:41;2.85;;;0.60;;
41532;SDS011;27262;-35.248;149.138;2024-03-02T03:56:12;16.25;;;1.13;;
41532;SDS011;27262;-35.248;149.138;2024-03-02T03:58:42;4.80;;;1.05;;
41532;SDS011;27262;-35.248;149.138;2024-03-02T04:01:12;5.88;;;1.05;;
41532;SDS011;27262;-35.248;149.138;2024-03-02T04:03:43;7.38;;;1.27;;
41532;SDS011;27262;-35.248;149.138;2024-03-02T04:06:13;6.53;;;1.00;;
41532;SDS011;27262;-35.248;149.138;2024-03-02T04:08:45;5.07;;;0.75;;
41532;SDS011;27262;-35.248;149.138;2024-03-02T04:11:16;5.57;;;1.05;;
41532;SDS011;27262;-35.248;149.138;2024-03-02T04:13:46;5.35;;;0.88;;
41532;SDS011;27262;-35.248;149.138;2024-03-02T04:16:21;7.80;;;1.00;;
41532;SDS011;27262;-35.248;149.138;2024-03-02T04:18:53;1.70;;;0.50;;
41532;SDS011;27262;-35.248;149.138;2024-03-02T04:21:23;4.85;;;0.70;;
41532;SDS011;27262;-35.248;149.138;2024-03-02T04:23:54;3.63;;;0.60;;
41532;SDS011;27262;-35.248;149.138;2024-03-02T04:26:27;5.28;;;0.73;;
41532;SDS011;27262;-35.248;149.138;2024-03-02T04:28:57;3.10;;;0.55;;
41532;SDS011;27262;-35.248;149.138;2024-03-02T04:31:28;4.32;;;0.90;;
41532;SDS011;27262;-35.248;149.138;2024-03-02T04:33:58;2.53;;;0.70;;
41532;SDS011;27262;-35.248;149.138;2024-03-02T04:36:29;13.27;;;0.65;;
41532;SDS011;27262;-35.248;149.138;2024-03-02T04:38:59;1.70;;;0.50;;
41532;SDS011;27262;-35.248;149.138;2024-03-02T04:41:30;1.73;;;0.52;;
41532;SDS011;27262;-35.248;149.138;2024-03-02T04:44:00;2.72;;;0.47;;
41532;SDS011;27262;-35.248;149.138;2024-03-02T04:46:31;4.13;;;0.75;;
41532;SDS011;27262;-35.248;149.138;2024-03-02T04:49:01;2.13;;;0.50;;
41532;SDS011;27262;-35.248;149.138;2024-03-02T04:51:31;1.40;;;0.50;;
41532;SDS011;27262;-35.248;149.138;2024-03-02T04:54:02;3.15;;;0.55;;
41532;SDS011;27262;-35.248;149.138;2024-03-02T04:56:33;8.48;;;0.80;;
41532;SDS011;27262;-35.248;149.138;2024-03-02T04:59:12;6.05;;;0.82;;
41532;SDS011;27262;-35.248;149.138;2024-03-02T05:01:43;3.55;;;0.68;;
41532;SDS011;27262;-35.248;149.138;2024-03-02T05:04:14;1.38;;;0.60;;
41532;SDS011;27262;-35.248;149.138;2024-03-02T05:06:45;3.53;;;0.60;;
41532;SDS011;27262;-35.248;149.138;2024-03-02T05:09:21;2.45;;;0.45;;
41532;SDS011;27262;-35.248;149.138;2024-03-02T05:11:51;1.08;;;0.40;;
41532;SDS011;27262;-35.248;149.138;2024-03-02T05:14:39;1.65;;;0.43;;
41532;SDS011;27262;-35.248;149.138;2024-03-02T05:17:09;0.98;;;0.25;;
41532;SDS011;27262;-35.248;149.138;2024-03-02T05:19:40;6.82;;;0.77;;
41532;SDS011;27262;-35.248;149.138;2024-03-02T05:22:10;4.50;;;0.73;;
41532;SDS011;27262;-35.248;149.138;2024-03-02T05:24:41;0.80;;;0.45;;
41532;SDS011;27262;-35.248;149.138;2024-03-02T05:27:11;2.83;;;0.55;;
41532;SDS011;27262;-35.248;149.138;2024-03-02T05:29:41;3.53;;;0.52;;
41532;SDS011;27262;-35.248;149.138;2024-03-02T05:32:11;2.90;;;0.63;;
41532;SDS011;27262;-35.248;149.138;2024-03-02T05:34:42;1.48;;;0.50;;
41532;SDS011;27262;-35.248;149.138;2024-03-02T05:37:12;3.30;;;0.45;;
41532;SDS011;27262;-35.248;149.138;2024-03-02T05:39:42;6.00;;;0.65;;
41532;SDS011;27262;-35.248;149.138;2024-03-02T05:42:13;5.53;;;0.63;;
41532;SDS011;27262;-35.248;149.138;2024-03-02T05:44:45;4.68;;;1.20;;
41532;SDS011;27262;-35.248;149.138;2024-03-02T05:47:16;2.45;;;1.25;;
41532;SDS011;27262;-35.248;149.138;2024-03-02T05:49:46;4.80;;;1.75;;
41532;SDS011;27262;-35.248;149.138;2024-03-02T05:52:16;7.13;;;1.63;;
41532;SDS011;27262;-35.248;149.138;2024-03-02T05:54:46;6.25;;;1.60;;
41532;SDS011;27262;-35.248;149.138;2024-03-02T05:57:18;8.68;;;1.77;;
41532;SDS011;27262;-35.248;149.138;2024-03-02T06:00:21;4.88;;;1.83;;
41532;SDS011;27262;-35.248;149.138;2024-03-02T06:02:51;2.25;;;1.02;;
41532;SDS011;27262;-35.248;149.138;2024-03-02T06:05:21;2.38;;;1.05;;
41532;SDS011;27262;-35.248;149.138;2024-03-02T06:07:51;3.05;;;1.15;;
41532;SDS011;27262;-35.248;149.138;2024-03-02T06:10:22;3.30;;;1.13;;
41532;SDS011;27262;-35.248;149.138;2024-03-02T06:12:52;3.28;;;0.60;;
41532;SDS011;27262;-35.248;149.138;2024-03-02T06:15:22;8.05;;;0.93;;
41532;SDS011;27262;-35.248;149.138;2024-03-02T06:17:53;2.42;;;0.70;;
41532;SDS011;27262;-35.248;149.138;2024-03-02T06:20:24;3.00;;;0.50;;
41532;SDS011;27262;-35.248;149.138;2024-03-02T06:22:57;1.27;;;0.70;;
41532;SDS011;27262;-35.248;149.138;2024-03-02T06:25:27;4.40;;;0.88;;
41532;SDS011;27262;-35.248;149.138;2024-03-02T06:27:57;3.15;;;0.43;;
41532;SDS011;27262;-35.248;149.138;2024-03-02T06:30:28;1.38;;;0.57;;
41532;SDS011;27262;-35.248;149.138;2024-03-02T06:32:58;1.63;;;0.70;;
41532;SDS011;27262;-35.248;149.138;2024-03-02T06:35:29;1.08;;;0.40;;
41532;SDS011;27262;-35.248;149.138;2024-03-02T06:37:59;4.15;;;0.40;;
41532;SDS011;27262;-35.248;149.138;2024-03-02T06:40:29;1.83;;;0.47;;
41532;SDS011;27262;-35.248;149.138;2024-03-02T06:43:00;2.65;;;0.60;;
41532;SDS011;27262;-35.248;149.138;2024-03-02T06:45:30;3.60;;;0.60;;
41532;SDS011;27262;-35.248;149.138;2024-03-02T06:48:03;2.92;;;0.70;;
41532;SDS011;27262;-35.248;149.138;2024-03-02T06:50:33;3.70;;;0.70;;
41532;SDS011;27262;-35.248;149.138;2024-03-02T06:53:04;2.80;;;0.65;;
41532;SDS011;27262;-35.248;149.138;2024-03-02T06:55:34;3.20;;;0.75;;
41532;SDS011;27262;-35.248;149.138;2024-03-02T06:58:04;5.22;;;0.60;;
41532;SDS011;27262;-35.248;149.138;2024-03-02T07:00:35;3.92;;;0.85;;
41532;SDS011;27262;-35.248;149.138;2024-03-02T07:03:05;2.15;;;0.50;;
41532;SDS011;27262;-35.248;149.138;2024-03-02T07:05:35;2.97;;;0.60;;
41532;SDS011;27262;-35.248;149.138;2024-03-02T07:08:06;3.17;;;0.52;;
41532;SDS011;27262;-35.248;149.138;2024-03-02T07:10:36;4.07;;;0.90;;
41532;SDS011;27262;-35.248;149.138;2024-03-02T07:13:07;2.55;;;0.55;;
41532;SDS011;27262;-35.248;149.138;2024-03-02T07:15:37;2.60;;;0.65;;
41532;SDS011;27262;-35.248;149.138;2024-03-02T07:18:26;2.42;;;0.82;;
41532;SDS011;27262;-35.248;149.138;2024-03-02T07:20:56;0.90;;;0.40;;
41532;SDS011;27262;-35.248;149.138;2024-03-02T07:23:29;2.33;;;0.63;;
41532;SDS011;27262;-35.248;149.138;2024-03-02T07:26:00;2.40;;;0.55;;
41532;SDS011;27262;-35.248;149.138;2024-03-02T07:28:34;5.68;;;0.70;;
41532;SDS011;27262;-35.248;149.138;2024-03-02T07:31:05;10.50;;;1.05;;
41532;SDS011;27262;-35.248;149.138;2024-03-02T07:33:57;1.98;;;0.55;;
41532;SDS011;27262;-35.248;149.138;2024-03-02T07:36:28;2.90;;;0.80;;
41532;SDS011;27262;-35.248;149.138;2024-03-02T07:38:58;2.00;;;0.93;;
41532;SDS011;27262;-35.248;149.138;2024-03-02T07:41:28;5.65;;;0.90;;
41532;SDS011;27262;-35.248;149.138;2024-03-02T07:43:59;14.23;;;1.40;;
41532;SDS011;27262;-35.248;149.138;2024-03-02T07:46:29;6.13;;;0.90;;
41532;SDS011;27262;-35.248;149.138;2024-03-02T07:49:00;5.22;;;1.00;;
41532;SDS011;27262;-35.248;149.138;2024-03-02T07:51:30;7.50;;;1.35;;
41532;SDS011;27262;-35.248;149.138;2024-03-02T07:54:00;6.20;;;0.90;;
41532;SDS011;27262;-35.248;149.138;2024-03-02T07:56:31;3.90;;;0.75;;
41532;SDS011;27262;-35.248;149.138;2024-03-02T07:59:02;5.30;;;0.80;;
41532;SDS011;27262;-35.248;149.138;2024-03-02T08:01:33;5.88;;;0.82;;
41532;SDS011;27262;-35.248;149.138;2024-03-02T08:04:03;10.35;;;1.20;;
41532;SDS011;27262;-35.248;149.138;2024-03-02T08:06:34;3.33;;;0.90;;
41532;SDS011;27262;-35.248;149.138;2024-03-02T08:09:04;5.30;;;0.98;;
41532;SDS011;27262;-35.248;149.138;2024-03-02T08:11:38;3.85;;;1.00;;
41532;SDS011;27262;-35.248;149.138;2024-03-02T08:14:08;3.30;;;0.85;;
41532;SDS011;27262;-35.248;149.138;2024-03-02T08:16:40;5.93;;;1.23;;
41532;SDS011;27262;-35.248;149.138;2024-03-02T08:19:10;2.20;;;0.60;;
41532;SDS011;27262;-35.248;149.138;2024-03-02T08:21:41;3.92;;;1.05;;
41532;SDS011;27262;-35.248;149.138;2024-03-02T08:24:12;2.90;;;1.00;;
41532;SDS011;27262;-35.248;149.138;2024-03-02T08:26:42;6.80;;;0.93;;
41532;SDS011;27262;-35.248;149.138;2024-03-02T08:29:13;4.10;;;0.98;;
41532;SDS011;27262;-35.248;149.138;2024-03-02T08:31:43;4.05;;;1.02;;
41532;SDS011;27262;-35.248;149.138;2024-03-02T08:34:14;2.60;;;1.10;;
41532;SDS011;27262;-35.248;149.138;2024-03-02T08:36:44;3.00;;;1.20;;
41532;SDS011;27262;-35.248;149.138;2024-03-02T08:39:15;3.03;;;1.17;;
41532;SDS011;27262;-35.248;149.138;2024-03-02T08:41:45;3.78;;;0.90;;
41532;SDS011;27262;-35.248;149.138;2024-03-02T08:44:17;3.38;;;0.95;;
41532;SDS011;27262;-35.248;149.138;2024-03-02T08:46:47;3.95;;;1.00;;
41532;SDS011;27262;-35.248;149.138;2024-03-02T08:49:19;2.10;;;0.77;;
41532;SDS011;27262;-35.248;149.138;2024-03-02T08:51:49;2.45;;;0.82;;
41532;SDS011;27262;-35.248;149.138;2024-03-02T08:54:23;4.35;;;1.10;;
41532;SDS011;27262;-35.248;149.138;2024-03-02T08:56:53;5.53;;;0.80;;
41532;SDS011;27262;-35.248;149.138;2024-03-02T08:59:24;3.67;;;0.80;;
41532;SDS011;27262;-35.248;149.138;2024-03-02T09:01:57;3.63;;;0.77;;
41532;SDS011;27262;-35.248;149.138;2024-03-02T09:04:28;1.77;;;0.70;;
41532;SDS011;27262;-35.248;149.138;2024-03-02T09:07:01;3.08;;;0.80;;
41532;SDS011;27262;-35.248;149.138;2024-03-02T09:09:31;4.20;;;0.70;;
41532;SDS011;27262;-35.248;149.138;2024-03-02T09:12:02;4.03;;;0.90;;
41532;SDS011;27262;-35.248;149.138;2024-03-02T09:14:33;1.65;;;0.82;;
41532;SDS011;27262;-35.248;149.138;2024-03-02T09:17:04;2.22;;;0.60;;
41532;SDS011;27262;-35.248;149.138;2024-03-02T09:19:34;1.58;;;0.50;;
41532;SDS011;27262;-35.248;149.138;2024-03-02T09:22:04;2.03;;;0.70;;
41532;SDS011;27262;-35.248;149.138;2024-03-02T09:24:35;1.15;;;0.40;;
41532;SDS011;27262;-35.248;149.138;2024-03-02T09:27:05;1.85;;;0.70;;
41532;SDS011;27262;-35.248;149.138;2024-03-02T09:29:36;2.83;;;0.73;;
41532;SDS011;27262;-35.248;149.138;2024-03-02T09:32:07;1.73;;;0.50;;
41532;SDS011;27262;-35.248;149.138;2024-03-02T09:34:41;1.48;;;0.60;;
41532;SDS011;27262;-35.248;149.138;2024-03-02T09:37:12;1.63;;;0.60;;
41532;SDS011;27262;-35.248;149.138;2024-03-02T09:39:43;2.00;;;0.55;;
41532;SDS011;27262;-35.248;149.138;2024-03-02T09:42:13;3.42;;;0.77;;
41532;SDS011;27262;-35.248;149.138;2024-03-02T09:44:44;1.52;;;0.63;;
41532;SDS011;27262;-35.248;149.138;2024-03-02T09:47:16;2.53;;;0.82;;
41532;SDS011;27262;-35.248;149.138;2024-03-02T09:49:47;1.67;;;0.40;;
41532;SDS011;27262;-35.248;149.138;2024-03-02T09:52:18;2.03;;;0.57;;
41532;SDS011;27262;-35.248;149.138;2024-03-02T09:54:48;2.53;;;0.73;;
41532;SDS011;27262;-35.248;149.138;2024-03-02T09:57:18;1.50;;;0.60;;
41532;SDS011;27262;-35.248;149.138;2024-03-02T09:59:49;2.22;;;0.70;;
41532;SDS011;27262;-35.248;149.138;2024-03-02T10:02:19;0.95;;;0.57;;
41532;SDS011;27262;-35.248;149.138;2024-03-02T10:04:50;3.50;;;0.80;;
41532;SDS011;27262;-35.248;149.138;2024-03-02T10:07:20;1.33;;;0.47;;
41532;SDS011;27262;-35.248;149.138;2024-03-02T10:09:51;0.80;;;0.40;;
41532;SDS011;27262;-35.248;149.138;2024-03-02T10:12:21;1.20;;;0.60;;
41532;SDS011;27262;-35.248;149.138;2024-03-02T10:15:03;2.22;;;0.70;;
41532;SDS011;27262;-35.248;149.138;2024-03-02T10:17:34;2.85;;;0.88;;
41532;SDS011;27262;-35.248;149.138;2024-03-02T10:20:23;2.72;;;0.63;;
41532;SDS011;27262;-35.248;149.138;2024-03-02T10:22:55;2.00;;;0.63;;
41532;SDS011;27262;-35.248;149.138;2024-03-02T10:25:38;1.48;;;0.50;;
41532;SDS011;27262;-35.248;149.138;2024-03-02T10:28:23;1.13;;;0.50;;
41532;SDS011;27262;-35.248;149.138;2024-03-02T10:30:56;1.52;;;0.70;;
41532;SDS011;27262;-35.248;149.138;2024-03-02T10:33:27;1.23;;;0.60;;
41532;SDS011;27262;-35.248;149.138;2024-03-02T10:35:58;1.52;;;0.60;;
41532;SDS011;27262;-35.248;149.138;2024-03-02T10:38:29;0.95;;;0.50;;
41532;SDS011;27262;-35.248;149.138;2024-03-02T10:41:00;1.17;;;0.50;;
41532;SDS011;27262;-35.248;149.138;2024-03-02T10:43:32;1.27;;;0.65;;
41532;SDS011;27262;-35.248;149.138;2024-03-02T10:46:02;1.70;;;0.60;;
41532;SDS011;27262;-35.248;149.138;2024-03-02T10:48:33;0.47;;;0.32;;
41532;SDS011;27262;-35.248;149.138;2024-03-02T10:51:06;2.67;;;0.68;;
41532;SDS011;27262;-35.248;149.138;2024-03-02T10:53:36;1.83;;;0.60;;
41532;SDS011;27262;-35.248;149.138;2024-03-02T10:56:07;1.73;;;0.50;;
41532;SDS011;27262;-35.248;149.138;2024-03-02T10:58:38;1.13;;;0.50;;
41532;SDS011;27262;-35.248;149.138;2024-03-02T11:01:09;2.22;;;0.63;;
41532;SDS011;27262;-35.248;149.138;2024-03-02T11:03:42;1.67;;;0.68;;
41532;SDS011;27262;-35.248;149.138;2024-03-02T11:06:13;2.63;;;0.50;;
41532;SDS011;27262;-35.248;149.138;2024-03-02T11:08:44;1.42;;;0.60;;
41532;SDS011;27262;-35.248;149.138;2024-03-02T11:11:19;0.98;;;0.45;;
41532;SDS011;27262;-35.248;149.138;2024-03-02T11:13:57;2.00;;;0.47;;
41532;SDS011;27262;-35.248;149.138;2024-03-02T11:16:37;2.35;;;0.60;;
41532;SDS011;27262;-35.248;149.138;2024-03-02T11:19:13;1.17;;;0.40;;
41532;SDS011;27262;-35.248;149.138;2024-03-02T11:21:44;1.58;;;0.50;;
41532;SDS011;27262;-35.248;149.138;2024-03-02T11:26:56;1.67;;;0.50;;
41532;SDS011;27262;-35.248;149.138;2024-03-02T11:32:15;2.00;;;0.60;;
41532;SDS011;27262;-35.248;149.138;2024-03-02T11:34:47;8.60;;;0.65;;
41532;SDS011;27262;-35.248;149.138;2024-03-02T11:37:19;7.07;;;0.60;;
41532;SDS011;27262;-35.248;149.138;2024-03-02T11:39:50;2.85;;;0.47;;
41532;SDS011;27262;-35.248;149.138;2024-03-02T11:42:21;2.85;;;0.73;;
41532;SDS011;27262;-35.248;149.138;2024-03-02T11:44:51;3.22;;;0.40;;
41532;SDS011;27262;-35.248;149.138;2024-03-02T11:47:26;1.38;;;0.40;;
41532;SDS011;27262;-35.248;149.138;2024-03-02T11:50:05;0.85;;;0.40;;
41532;SDS011;27262;-35.248;149.138;2024-03-02T11:52:35;2.72;;;0.70;;
41532;SDS011;27262;-35.248;149.138;2024-03-02T11:55:08;3.05;;;0.60;;
41532;SDS011;27262;-35.248;149.138;2024-03-02T11:57:40;2.33;;;0.40;;
41532;SDS011;27262;-35.248;149.138;2024-03-02T12:00:17;0.30;;;0.30;;
41532;SDS011;27262;-35.248;149.138;2024-03-02T12:03:12;0.55;;;0.32;;
41532;SDS011;27262;-35.248;149.138;2024-03-02T12:05:42;0.88;;;0.40;;
41532;SDS011;27262;-35.248;149.138;2024-03-02T12:08:14;1.25;;;0.43;;
41532;SDS011;27262;-35.248;149.138;2024-03-02T12:10:57;0.52;;;0.30;;
41532;SDS011;27262;-35.248;149.138;2024-03-02T12:13:31;2.70;;;0.70;;
41532;SDS011;27262;-35.248;149.138;2024-03-02T12:16:06;0.70;;;0.32;;
41532;SDS011;27262;-35.248;149.138;2024-03-02T12:18:36;1.25;;;0.45;;
41532;SDS011;27262;-35.248;149.138;2024-03-02T12:21:06;0.50;;;0.25;;
41532;SDS011;27262;-35.248;149.138;2024-03-02T12:23:37;1.95;;;0.50;;
41532;SDS011;27262;-35.248;149.138;2024-03-02T12:26:07;0.63;;;0.30;;
41532;SDS011;27262;-35.248;149.138;2024-03-02T12:28:38;2.15;;;0.50;;
41532;SDS011;27262;-35.248;149.138;2024-03-02T12:31:08;2.17;;;0.40;;
41532;SDS011;27262;-35.248;149.138;2024-03-02T12:33:38;0.57;;;0.45;;
41532;SDS011;27262;-35.248;149.138;2024-03-02T12:36:10;1.83;;;0.40;;
41532;SDS011;27262;-35.248;149.138;2024-03-02T12:38:45;0.35;;;0.35;;
41532;SDS011;27262;-35.248;149.138;2024-03-02T12:41:15;0.38;;;0.30;;
41532;SDS011;27262;-35.248;149.138;2024-03-02T12:43:46;1.27;;;0.52;;
41532;SDS011;27262;-35.248;149.138;2024-03-02T12:46:16;2.15;;;0.60;;
41532;SDS011;27262;-35.248;149.138;2024-03-02T12:48:47;1.90;;;0.65;;
41532;SDS011;27262;-35.248;149.138;2024-03-02T12:51:17;1.70;;;0.60;;
41532;SDS011;27262;-35.248;149.138;2024-03-02T12:53:55;2.88;;;0.60;;
41532;SDS011;27262;-35.248;149.138;2024-03-02T12:56:28;2.60;;;0.60;;
41532;SDS011;27262;-35.248;149.138;2024-03-02T12:58:59;2.05;;;0.60;;
41532;SDS011;27262;-35.248;149.138;2024-03-02T13:01:30;0.68;;;0.45;;
41532;SDS011;27262;-35.248;149.138;2024-03-02T13:04:01;1.00;;;0.60;;
41532;SDS011;27262;-35.248;149.138;2024-03-02T13:06:32;2.08;;;0.50;;
41532;SDS011;27262;-35.248;149.138;2024-03-02T13:09:03;1.63;;;0.43;;
41532;SDS011;27262;-35.248;149.138;2024-03-02T13:11:39;1.42;;;0.57;;
41532;SDS011;27262;-35.248;149.138;2024-03-02T13:14:10;1.73;;;0.50;;
41532;SDS011;27262;-35.248;149.138;2024-03-02T13:16:41;2.25;;;0.95;;
41532;SDS011;27262;-35.248;149.138;2024-03-02T13:19:14;3.13;;;0.90;;
41532;SDS011;27262;-35.248;149.138;2024-03-02T13:21:44;2.28;;;0.90;;
41532;SDS011;27262;-35.248;149.138;2024-03-02T13:24:15;1.45;;;0.57;;
41532;SDS011;27262;-35.248;149.138;2024-03-02T13:26:45;2.28;;;0.55;;
41532;SDS011;27262;-35.248;149.138;2024-03-02T13:29:15;3.63;;;0.82;;
41532;SDS011;27262;-35.248;149.138;2024-03-02T13:31:46;2.65;;;0.90;;
41532;SDS011;27262;-35.248;149.138;2024-03-02T13:34:19;2.25;;;0.90;;
41532;SDS011;27262;-35.248;149.138;2024-03-02T13:36:49;2.22;;;0.88;;
41532;SDS011;27262;-35.248;149.138;2024-03-02T13:39:21;2.88;;;1.13;;
41532;SDS011;27262;-35.248;149.138;2024-03-02T13:41:52;3.53;;;1.52;;
41532;SDS011;27262;-35.248;149.138;2024-03-02T13:44:32;3.33;;;1.42;;
41532;SDS011;27262;-35.248;149.138;2024-03-02T13:47:03;3.05;;;1.27;;
41532;SDS011;27262;-35.248;149.138;2024-03-02T13:49:34;2.95;;;1.30;;
41532;SDS011;27262;-35.248;149.138;2024-03-02T13:52:12;3.15;;;1.30;;
41532;SDS011;27262;-35.248;149.138;2024-03-02T13:54:43;5.05;;;1.48;;
41532;SDS011;27262;-35.248;149.138;2024-03-02T13:57:15;3.72;;;1.27;;
41532;SDS011;27262;-35.248;149.138;2024-03-02T13:59:53;3.25;;;1.30;;
41532;SDS011;27262;-35.248;149.138;2024-03-02T14:02:23;2.85;;;1.35;;
41532;SDS011;27262;-35.248;149.138;2024-03-02T14:04:54;3.55;;;1.60;;
41532;SDS011;27262;-35.248;149.138;2024-03-02T14:07:24;2.50;;;1.30;;
41532;SDS011;27262;-35.248;149.138;2024-03-02T14:09:55;3.42;;;1.45;;
41532;SDS011;27262;-35.248;149.138;2024-03-02T14:12:26;4.13;;;1.67;;
41532;SDS011;27262;-35.248;149.138;2024-03-02T14:14:57;2.95;;;1.30;;
41532;SDS011;27262;-35.248;149.138;2024-03-02T14:17:27;3.10;;;1.05;;
41532;SDS011;27262;-35.248;149.138;2024-03-02T14:20:00;4.00;;;1.52;;
41532;SDS011;27262;-35.248;149.138;2024-03-02T14:22:33;1.85;;;0.93;;
41532;SDS011;27262;-35.248;149.138;2024-03-02T14:25:06;1.95;;;0.98;;
41532;SDS011;27262;-35.248;149.138;2024-03-02T14:27:37;5.28;;;1.15;;
41532;SDS011;27262;-35.248;149.138;2024-03-02T14:30:27;1.88;;;0.90;;
41532;SDS011;27262;-35.248;149.138;2024-03-02T14:32:57;2.78;;;1.13;;
41532;SDS011;27262;-35.248;149.138;2024-03-02T14:35:28;1.92;;;0.90;;
41532;SDS011;27262;-35.248;149.138;2024-03-02T14:37:59;2.92;;;1.25;;
41532;SDS011;27262;-35.248;149.138;2024-03-02T14:40:29;2.08;;;0.98;;